Terminal Aerodrome Forecast
Issued by NWS

Home | Current Version | Previous Version | Text Only | Print | Product List | Glossary On
Versions: 1 2 3 4 5 6 7 8 9 10 11 12
000
FTUS44 KEPZ 252326
TAFLRU
TAF
KLRU 252326Z 2600/2624 25020G28KT P6SM FEW110
     FM260300 25012G19KT P6SM SKC
     FM261000 26010KT P6SM SKC
     FM261500 25022G30KT P6SM SKC=

USA.gov is the U.S. government's official web portal to all federal, state and local government web resources and services.